createdAt,value
2019-03-23T00:00:41.762Z,10.04
2019-03-23T00:03:13.980Z,9.95
2019-03-23T00:05:46.334Z,9.87
2019-03-23T00:08:18.640Z,9.85
2019-03-23T00:10:50.786Z,9.81
2019-03-23T00:13:23.101Z,9.71
2019-03-23T00:15:55.419Z,9.66
2019-03-23T00:18:27.664Z,9.65
2019-03-23T00:20:59.804Z,9.52
2019-03-23T00:23:32.225Z,9.50
2019-03-23T00:26:04.979Z,9.48
2019-03-23T00:28:37.132Z,9.40
2019-03-23T00:31:09.354Z,9.39
2019-03-23T00:33:42.019Z,9.29
2019-03-23T00:36:14.516Z,9.23
2019-03-23T00:38:46.654Z,9.16
2019-03-23T00:41:18.860Z,9.14
2019-03-23T00:43:51.014Z,9.09
2019-03-23T00:46:23.186Z,8.95
2019-03-23T00:48:55.347Z,8.90
2019-03-23T00:51:27.500Z,8.83
2019-03-23T00:53:59.678Z,8.72
2019-03-23T00:56:31.838Z,8.63
2019-03-23T00:59:03.967Z,8.62
2019-03-23T01:01:36.188Z,8.52
2019-03-23T01:04:08.596Z,8.49
2019-03-23T01:06:51.593Z,8.51
2019-03-23T01:09:14.693Z,8.41
2019-03-23T01:11:46.900Z,8.33
2019-03-23T01:14:19.145Z,8.32
2019-03-23T01:16:51.355Z,8.28
2019-03-23T01:19:23.490Z,8.17
2019-03-23T01:21:55.696Z,8.25
2019-03-23T01:24:27.919Z,8.11
2019-03-23T01:27:00.126Z,8.07
2019-03-23T01:29:32.388Z,8.05
2019-03-23T01:32:04.604Z,7.99
2019-03-23T01:34:36.765Z,7.94
2019-03-23T01:37:09.071Z,7.88
2019-03-23T01:39:41.547Z,7.91
2019-03-23T01:42:13.747Z,7.94
2019-03-23T01:44:45.973Z,7.87
2019-03-23T01:47:18.187Z,7.93
2019-03-23T01:49:50.327Z,7.99
2019-03-23T01:52:22.460Z,8.01
2019-03-23T01:54:54.595Z,8.01
2019-03-23T01:57:26.741Z,8.03
2019-03-23T01:59:58.983Z,8.02
2019-03-23T02:02:31.201Z,7.98
2019-03-23T02:05:03.346Z,7.91
2019-03-23T02:07:35.475Z,7.69
2019-03-23T02:10:08.171Z,7.50
2019-03-23T02:12:40.882Z,7.51
2019-03-23T02:15:14.114Z,7.52
2019-03-23T02:17:46.246Z,7.49
2019-03-23T02:20:18.541Z,7.40
2019-03-23T02:22:50.748Z,7.46
2019-03-23T02:25:22.883Z,7.51
2019-03-23T02:27:55.026Z,7.52
2019-03-23T02:30:27.252Z,7.54
2019-03-23T02:32:59.457Z,7.57
2019-03-23T02:35:31.587Z,7.54
2019-03-23T02:38:03.731Z,7.53
2019-03-23T02:40:35.879Z,7.43
2019-03-23T02:43:08.275Z,7.40
2019-03-23T02:45:40.883Z,7.44
2019-03-23T02:48:13.028Z,7.42
2019-03-23T02:50:45.212Z,7.37
2019-03-23T02:53:17.346Z,7.28
2019-03-23T02:55:49.478Z,7.19
2019-03-23T02:58:21.605Z,7.09
2019-03-23T03:00:54.839Z,7.05
2019-03-23T03:03:26.988Z,7.04
2019-03-23T03:05:59.121Z,7.03
2019-03-23T03:08:31.330Z,7.03
2019-03-23T03:11:03.474Z,7.02
2019-03-23T03:13:35.668Z,6.98
2019-03-23T03:16:07.884Z,6.93
2019-03-23T03:18:40.104Z,6.86
2019-03-23T03:21:14.057Z,6.97
2019-03-23T03:23:46.204Z,6.95
2019-03-23T03:26:18.400Z,6.88
2019-03-23T03:28:50.548Z,6.88
2019-03-23T03:31:22.706Z,6.85
2019-03-23T03:33:54.948Z,6.82
2019-03-23T03:36:29.967Z,6.71
2019-03-23T03:39:00.989Z,6.65
2019-03-23T03:41:34.702Z,6.67
2019-03-23T03:44:06.848Z,6.69
2019-03-23T03:46:39.092Z,6.67
2019-03-23T03:49:12.943Z,6.52
2019-03-23T03:51:45.338Z,6.41
2019-03-23T03:54:17.495Z,6.40
2019-03-23T03:56:49.751Z,6.29
2019-03-23T03:59:21.886Z,6.26
2019-03-23T04:01:54.025Z,6.30
2019-03-23T04:04:26.217Z,6.34
2019-03-23T04:06:58.360Z,6.28
2019-03-23T04:09:30.506Z,6.28
2019-03-23T04:12:02.721Z,6.32
2019-03-23T04:14:34.959Z,6.24
2019-03-23T04:17:07.175Z,6.30
2019-03-23T04:19:39.394Z,6.31
2019-03-23T04:22:12.057Z,6.27
2019-03-23T04:24:44.541Z,6.15
2019-03-23T04:27:16.796Z,6.10
2019-03-23T04:29:48.942Z,6.10
2019-03-23T04:32:21.204Z,6.09
2019-03-23T04:34:53.485Z,6.12
2019-03-23T04:37:25.946Z,6.09
2019-03-23T04:39:58.249Z,6.04
2019-03-23T04:42:30.384Z,6.02
2019-03-23T04:45:02.689Z,6.01
2019-03-23T04:47:34.993Z,6.03
2019-03-23T04:50:07.893Z,5.99
2019-03-23T04:52:40.057Z,5.99
2019-03-23T04:55:12.355Z,5.99
2019-03-23T04:57:44.559Z,5.97
2019-03-23T05:00:16.895Z,6.02
2019-03-23T05:02:49.136Z,6.02
2019-03-23T05:05:21.272Z,6.09
2019-03-23T05:07:53.474Z,6.11
2019-03-23T05:10:25.791Z,6.16
2019-03-23T05:12:57.928Z,6.15
2019-03-23T05:15:30.069Z,5.99
2019-03-23T05:18:02.480Z,5.77
2019-03-23T05:20:34.613Z,5.76
2019-03-23T05:23:06.862Z,5.81
2019-03-23T05:25:39.111Z,5.87
2019-03-23T05:28:11.533Z,5.92
2019-03-23T05:30:43.693Z,5.94
2019-03-23T05:33:15.829Z,6.02
2019-03-23T05:35:47.974Z,5.95
2019-03-23T05:38:20.131Z,5.99
2019-03-23T05:40:52.375Z,6.04
2019-03-23T05:43:24.689Z,6.14
2019-03-23T05:45:57.442Z,6.20
2019-03-23T05:48:29.583Z,6.22
2019-03-23T05:51:01.812Z,6.24
2019-03-23T05:53:34.036Z,6.26
2019-03-23T05:56:06.171Z,6.23
2019-03-23T05:58:38.309Z,6.37
2019-03-23T06:01:10.987Z,6.48
2019-03-23T06:03:43.166Z,6.61
2019-03-23T06:06:15.601Z,6.71
2019-03-23T06:08:55.057Z,6.83
2019-03-23T06:11:21.693Z,6.94
2019-03-23T06:13:53.907Z,6.99
2019-03-23T06:16:26.061Z,7.05
2019-03-23T06:18:58.235Z,7.15
2019-03-23T06:21:30.366Z,7.22
2019-03-23T06:24:02.575Z,7.29
2019-03-23T06:26:34.789Z,7.38
2019-03-23T06:29:06.944Z,7.49
2019-03-23T06:31:39.123Z,7.57
2019-03-23T06:34:11.614Z,7.66
2019-03-23T06:36:43.754Z,7.74
2019-03-23T06:39:15.898Z,7.81
2019-03-23T06:41:48.103Z,7.89
2019-03-23T06:44:20.328Z,8.03
2019-03-23T06:46:53.562Z,8.01
2019-03-23T06:49:26.684Z,8.12
2019-03-23T06:51:58.827Z,8.26
2019-03-23T06:54:30.964Z,8.30
2019-03-23T06:57:03.132Z,8.38
2019-03-23T06:59:35.312Z,8.38
2019-03-23T07:02:07.558Z,8.47
2019-03-23T07:04:39.699Z,8.53
2019-03-23T07:07:12.546Z,8.63
2019-03-23T07:09:45.009Z,8.75
2019-03-23T07:12:17.149Z,8.79
2019-03-23T07:14:49.319Z,8.86
2019-03-23T07:17:21.457Z,9.02
2019-03-23T07:19:53.598Z,9.06
2019-03-23T07:22:25.745Z,9.08
2019-03-23T07:24:57.875Z,9.22
2019-03-23T07:27:30.022Z,9.32
2019-03-23T07:30:03.817Z,9.34
2019-03-23T07:32:36.289Z,9.39
2019-03-23T07:35:09.149Z,9.57
2019-03-23T07:37:43.791Z,9.69
2019-03-23T07:40:16.156Z,9.73
2019-03-23T07:42:49.960Z,9.88
2019-03-23T07:45:22.970Z,9.98
2019-03-23T07:47:55.225Z,10.13
2019-03-23T07:50:27.375Z,10.19
2019-03-23T07:52:59.522Z,10.35
2019-03-23T07:55:31.687Z,10.49
2019-03-23T07:58:03.840Z,10.65
2019-03-23T08:00:36.071Z,10.74
2019-03-23T08:03:08.470Z,10.87
2019-03-23T08:05:41.790Z,10.96
2019-03-23T08:08:15.655Z,11.04
2019-03-23T08:10:49.322Z,11.15
2019-03-23T08:13:23.061Z,11.29
2019-03-23T08:15:56.982Z,11.37
2019-03-23T08:18:30.693Z,11.49
2019-03-23T08:21:03.878Z,11.65
2019-03-23T08:23:37.387Z,11.66
2019-03-23T08:26:12.576Z,11.70
2019-03-23T08:28:47.048Z,11.85
2019-03-23T08:31:19.781Z,11.97
2019-03-23T08:33:52.234Z,12.13
2019-03-23T08:36:24.440Z,12.23
2019-03-23T08:38:57.132Z,12.41
2019-03-23T08:41:29.279Z,12.53
2019-03-23T08:44:02.129Z,12.66
2019-03-23T08:46:35.158Z,12.78
2019-03-23T08:49:07.385Z,12.88
2019-03-23T08:51:40.783Z,12.94
2019-03-23T08:54:13.432Z,13.03
2019-03-23T08:56:45.603Z,13.15
2019-03-23T08:59:18.450Z,13.24
2019-03-23T09:01:51.221Z,13.33
2019-03-23T09:04:23.490Z,13.52
2019-03-23T09:06:55.655Z,13.54
2019-03-23T09:09:27.888Z,13.71
2019-03-23T09:12:00.138Z,13.86
2019-03-23T09:14:32.354Z,14.03
2019-03-23T09:17:05.648Z,14.14
2019-03-23T09:19:38.977Z,14.32
2019-03-23T09:22:11.439Z,14.58
2019-03-23T09:24:47.734Z,14.62
2019-03-23T09:27:22.093Z,14.84
2019-03-23T09:29:56.887Z,15.09
2019-03-23T09:32:31.328Z,15.09
2019-03-23T09:35:04.835Z,15.25
2019-03-23T09:37:38.478Z,15.21
2019-03-23T09:40:11.668Z,15.22
2019-03-23T09:42:44.668Z,15.71
2019-03-23T09:45:17.428Z,15.71
2019-03-23T09:47:50.406Z,15.94
2019-03-23T09:50:22.738Z,16.19
2019-03-23T09:52:55.001Z,16.25
2019-03-23T09:55:28.800Z,16.58
2019-03-23T09:58:02.134Z,16.72
2019-03-23T10:00:34.342Z,16.78
2019-03-23T10:03:06.561Z,16.93
2019-03-23T10:05:38.786Z,17.21
2019-03-23T10:08:11.405Z,17.25
2019-03-23T10:10:43.636Z,17.20
2019-03-23T10:13:15.849Z,17.44
2019-03-23T10:15:48.074Z,17.53
2019-03-23T10:18:20.219Z,17.67
2019-03-23T10:20:52.440Z,17.74
2019-03-23T10:23:24.582Z,17.87
2019-03-23T10:25:56.787Z,17.76
2019-03-23T10:28:29.008Z,17.93
2019-03-23T10:31:01.179Z,18.21
2019-03-23T10:33:33.401Z,18.31
2019-03-23T10:36:05.575Z,18.52
2019-03-23T10:38:39.054Z,18.74
2019-03-23T10:41:12.394Z,18.88
2019-03-23T10:43:45.819Z,19.10
2019-03-23T10:46:17.986Z,19.12
2019-03-23T10:48:50.190Z,19.26
2019-03-23T10:51:22.352Z,19.24
2019-03-23T10:53:55.389Z,19.34
2019-03-23T10:56:27.724Z,19.67
2019-03-23T10:58:59.964Z,19.69
2019-03-23T11:01:32.174Z,19.86
2019-03-23T11:04:04.423Z,19.97
2019-03-23T11:06:36.779Z,19.99
2019-03-23T11:09:09.083Z,20.11
2019-03-23T11:11:41.687Z,20.23
2019-03-23T11:14:14.702Z,20.23
2019-03-23T11:16:48.697Z,20.00
2019-03-23T11:19:20.866Z,19.71
2019-03-23T11:21:53.085Z,19.79
2019-03-23T11:24:25.263Z,20.10
2019-03-23T11:26:57.486Z,20.22
2019-03-23T11:29:29.714Z,20.43
2019-03-23T11:32:01.983Z,20.64
2019-03-23T11:34:34.204Z,20.81
2019-03-23T11:37:06.498Z,20.86
2019-03-23T11:39:38.928Z,20.91
2019-03-23T11:42:11.162Z,21.00
2019-03-23T11:44:44.453Z,20.93
2019-03-23T11:47:16.627Z,21.15
2019-03-23T11:49:51.094Z,21.16
2019-03-23T11:52:24.373Z,21.17
2019-03-23T11:54:56.552Z,21.25
2019-03-23T11:57:29.077Z,21.02
2019-03-23T12:00:01.391Z,21.01
2019-03-23T12:02:33.877Z,21.08
2019-03-23T12:05:07.644Z,21.24
2019-03-23T12:07:43.163Z,21.32
2019-03-23T12:10:15.781Z,21.35
2019-03-23T12:12:47.967Z,21.17
2019-03-23T12:15:20.160Z,20.78
2019-03-23T12:17:52.693Z,20.58
2019-03-23T12:20:24.801Z,20.53
2019-03-23T12:22:56.978Z,20.14
2019-03-23T12:25:29.178Z,20.13
2019-03-23T12:28:01.411Z,19.96
2019-03-23T12:30:34.948Z,20.08
2019-03-23T12:33:07.895Z,20.13
2019-03-23T12:35:45.370Z,20.22
2019-03-23T12:38:19.067Z,20.25
2019-03-23T12:40:51.349Z,20.13
2019-03-23T12:43:25.098Z,20.09
2019-03-23T12:45:58.930Z,20.10
2019-03-23T12:48:31.577Z,20.13
2019-03-23T12:51:03.931Z,20.20
2019-03-23T12:53:36.079Z,20.26
2019-03-23T12:56:08.300Z,20.16
2019-03-23T12:58:40.542Z,20.08
2019-03-23T13:01:12.971Z,20.25
2019-03-23T13:03:45.161Z,20.45
2019-03-23T13:06:17.299Z,20.34
2019-03-23T13:08:49.552Z,20.25
2019-03-23T13:11:24.635Z,20.38
2019-03-23T13:13:57.299Z,20.31
2019-03-23T13:16:29.873Z,20.34
2019-03-23T13:19:02.502Z,20.33
2019-03-23T13:21:34.863Z,20.41
2019-03-23T13:24:07.480Z,20.39
2019-03-23T13:26:40.145Z,20.38
2019-03-23T13:29:13.442Z,20.39
2019-03-23T13:31:46.094Z,20.41
2019-03-23T13:34:18.584Z,20.45
2019-03-23T13:36:55.457Z,20.44
2019-03-23T13:39:28.335Z,20.31
2019-03-23T13:42:03.096Z,20.28
2019-03-23T13:44:36.284Z,20.20
2019-03-23T13:47:11.725Z,20.08
2019-03-23T13:49:46.027Z,20.12
2019-03-23T13:52:23.089Z,20.24
2019-03-23T13:54:59.892Z,20.23
2019-03-23T13:57:34.046Z,20.33
2019-03-23T14:00:07.617Z,20.41
2019-03-23T14:02:40.474Z,20.36
2019-03-23T14:05:16.309Z,20.31
2019-03-23T14:07:47.716Z,20.29
2019-03-23T14:10:21.381Z,20.30
2019-03-23T14:12:54.934Z,20.37
2019-03-23T14:15:28.740Z,20.44
2019-03-23T14:18:01.526Z,20.54
2019-03-23T14:20:34.355Z,20.63
2019-03-23T14:23:07.025Z,20.66
2019-03-23T14:25:39.430Z,20.77
2019-03-23T14:28:12.416Z,20.74
2019-03-23T14:30:45.174Z,20.85
2019-03-23T14:33:17.991Z,20.88
2019-03-23T14:35:50.854Z,20.88
2019-03-23T14:38:23.177Z,20.87
2019-03-23T14:40:55.496Z,20.88
2019-03-23T14:43:27.843Z,20.81
2019-03-23T14:46:02.883Z,20.86
2019-03-23T14:48:35.221Z,20.74
2019-03-23T14:51:07.768Z,20.76
2019-03-23T14:53:40.689Z,20.81
2019-03-23T14:56:13.298Z,20.81
2019-03-23T14:58:46.018Z,20.89
2019-03-23T15:01:18.261Z,20.87
2019-03-23T15:03:50.589Z,20.85
2019-03-23T15:06:23.281Z,20.80
2019-03-23T15:08:55.940Z,20.81
2019-03-23T15:11:29.662Z,20.92
2019-03-23T15:14:01.978Z,20.95
2019-03-23T15:16:34.141Z,21.21
2019-03-23T15:19:06.597Z,21.26
2019-03-23T15:21:38.918Z,21.49
2019-03-23T15:24:11.324Z,21.33
2019-03-23T15:26:43.769Z,21.21
2019-03-23T15:29:16.225Z,21.15
2019-03-23T15:31:50.023Z,21.05
2019-03-23T15:34:22.825Z,20.99
2019-03-23T15:36:55.171Z,21.05
2019-03-23T15:39:27.495Z,20.96
2019-03-23T15:42:00.211Z,20.81
2019-03-23T15:44:32.732Z,20.71
2019-03-23T15:47:05.311Z,20.57
2019-03-23T15:49:38.049Z,20.45
2019-03-23T15:52:11.573Z,20.37
2019-03-23T15:54:44.921Z,20.27
2019-03-23T15:57:17.517Z,20.17
2019-03-23T15:59:51.310Z,20.12
2019-03-23T16:02:24.210Z,20.59
2019-03-23T16:04:56.695Z,21.03
2019-03-23T16:07:29.830Z,21.21
2019-03-23T16:10:02.241Z,21.21
2019-03-23T16:12:37.483Z,21.30
2019-03-23T16:15:10.050Z,21.13
2019-03-23T16:17:42.377Z,20.91
2019-03-23T16:20:14.535Z,20.69
2019-03-23T16:22:46.754Z,20.42
2019-03-23T16:25:18.901Z,20.16
2019-03-23T16:27:51.116Z,19.93
2019-03-23T16:30:33.216Z,19.73
2019-03-23T16:33:05.499Z,19.53
2019-03-23T16:35:37.726Z,19.26
2019-03-23T16:38:10.587Z,18.96
2019-03-23T16:40:43.038Z,18.66
2019-03-23T16:43:15.256Z,18.43
2019-03-23T16:45:48.944Z,18.16
2019-03-23T16:48:21.210Z,17.83
2019-03-23T16:50:53.360Z,17.60
2019-03-23T16:53:26.319Z,17.35
2019-03-23T16:56:02.209Z,17.27
2019-03-23T16:58:35.737Z,17.02
2019-03-23T17:01:10.542Z,16.99
2019-03-23T17:03:43.853Z,16.82
2019-03-23T17:06:17.742Z,16.70
2019-03-23T17:08:50.834Z,16.43
2019-03-23T17:11:23.074Z,16.21
2019-03-23T17:13:55.256Z,16.03
2019-03-23T17:16:27.826Z,15.91
2019-03-23T17:19:00.541Z,15.88
2019-03-23T17:21:35.225Z,15.74
2019-03-23T17:24:08.086Z,15.57
2019-03-23T17:26:41.653Z,15.35
2019-03-23T17:29:16.856Z,14.91
2019-03-23T17:31:49.713Z,14.91
2019-03-23T17:34:22.265Z,14.86
2019-03-23T17:36:55.761Z,14.56
2019-03-23T17:39:28.313Z,14.27
2019-03-23T17:42:03.606Z,14.11
2019-03-23T17:44:36.133Z,14.00
2019-03-23T17:47:08.283Z,13.64
2019-03-23T17:49:40.964Z,13.64
2019-03-23T17:52:13.686Z,13.37
2019-03-23T17:54:46.151Z,13.37
2019-03-23T17:57:19.377Z,13.16
2019-03-23T17:59:51.532Z,13.09
2019-03-23T18:02:23.771Z,13.06
2019-03-23T18:04:56.344Z,12.97
2019-03-23T18:07:29.789Z,12.84
2019-03-23T18:10:05.814Z,12.70
2019-03-23T18:12:39.935Z,12.64
2019-03-23T18:15:14.742Z,12.58
2019-03-23T18:17:51.133Z,12.46
2019-03-23T18:20:24.718Z,12.27
2019-03-23T18:23:01.598Z,12.20
2019-03-23T18:25:35.443Z,12.16
2019-03-23T18:28:08.075Z,12.14
2019-03-23T18:30:42.171Z,11.99
2019-03-23T18:33:14.398Z,12.02
2019-03-23T18:35:47.623Z,11.95
2019-03-23T18:38:20.565Z,11.89
2019-03-23T18:40:54.566Z,11.88
2019-03-23T18:43:28.070Z,11.86
2019-03-23T18:46:00.831Z,11.87
2019-03-23T18:48:33.898Z,11.90
2019-03-23T18:51:07.148Z,11.84
2019-03-23T18:53:40.118Z,11.94
2019-03-23T18:56:14.930Z,11.96
2019-03-23T18:58:47.228Z,12.08
2019-03-23T19:01:20.093Z,12.05
2019-03-23T19:03:52.432Z,11.99
2019-03-23T19:06:24.866Z,11.81
2019-03-23T19:08:57.093Z,11.84
2019-03-23T19:11:30.231Z,11.70
2019-03-23T19:14:02.499Z,11.57
2019-03-23T19:16:34.741Z,11.59
2019-03-23T19:19:09.651Z,11.57
2019-03-23T19:21:42.688Z,11.57
2019-03-23T19:24:15.486Z,11.51
2019-03-23T19:26:48.268Z,11.50
2019-03-23T19:29:21.198Z,11.56
2019-03-23T19:31:54.891Z,11.62
2019-03-23T19:34:27.480Z,11.59
2019-03-23T19:37:00.279Z,11.58
2019-03-23T19:39:32.517Z,11.54
2019-03-23T19:42:05.464Z,11.56
2019-03-23T19:44:38.409Z,11.57
2019-03-23T19:47:11.142Z,11.48
2019-03-23T19:49:44.169Z,11.55
2019-03-23T19:52:16.346Z,11.54
2019-03-23T19:54:48.586Z,11.53
2019-03-23T19:57:20.744Z,11.60
2019-03-23T19:59:52.911Z,11.63
2019-03-23T20:02:25.059Z,11.52
2019-03-23T20:04:57.232Z,11.60
2019-03-23T20:07:33.299Z,11.41
2019-03-23T20:10:03.419Z,11.34
2019-03-23T20:12:35.671Z,11.35
2019-03-23T20:15:08.096Z,11.25
2019-03-23T20:17:40.463Z,11.11
2019-03-23T20:20:13.115Z,11.09
2019-03-23T20:22:45.274Z,11.11
2019-03-23T20:25:17.502Z,11.18
2019-03-23T20:27:49.765Z,11.29
2019-03-23T20:30:22.007Z,11.27
2019-03-23T20:32:54.239Z,11.21
2019-03-23T20:35:26.469Z,11.14
2019-03-23T20:37:58.706Z,11.05
2019-03-23T20:40:30.949Z,11.04
2019-03-23T20:43:03.186Z,10.83
2019-03-23T20:45:35.394Z,10.82
2019-03-23T20:48:07.611Z,10.72
2019-03-23T20:50:40.232Z,10.74
2019-03-23T20:53:13.991Z,10.60
2019-03-23T20:55:46.283Z,10.47
2019-03-23T20:58:18.622Z,10.44
2019-03-23T21:00:50.881Z,10.39
2019-03-23T21:03:23.103Z,10.39
2019-03-23T21:05:55.324Z,10.27
2019-03-23T21:08:27.537Z,10.21
2019-03-23T21:10:59.703Z,10.09
2019-03-23T21:13:31.849Z,9.98
2019-03-23T21:16:04.029Z,9.98
2019-03-23T21:18:36.250Z,9.95
2019-03-23T21:21:09.685Z,9.91
2019-03-23T21:23:43.669Z,9.93
2019-03-23T21:26:16.124Z,9.93
2019-03-23T21:28:49.092Z,9.81
2019-03-23T21:31:21.727Z,9.84
2019-03-23T21:33:53.984Z,9.93
2019-03-23T21:36:26.717Z,9.79
2019-03-23T21:38:59.029Z,9.73
2019-03-23T21:41:31.160Z,9.66
2019-03-23T21:44:05.224Z,9.72
2019-03-23T21:46:37.824Z,9.78
2019-03-23T21:49:10.634Z,9.70
2019-03-23T21:51:43.455Z,9.50
2019-03-23T21:54:18.623Z,9.48
2019-03-23T21:56:51.545Z,9.57
2019-03-23T21:59:25.481Z,9.50
2019-03-23T22:01:57.874Z,9.55
2019-03-23T22:04:31.073Z,9.33
2019-03-23T22:07:03.331Z,9.35
2019-03-23T22:09:35.663Z,9.31
2019-03-23T22:12:09.045Z,9.33
2019-03-23T22:14:42.141Z,9.20
2019-03-23T22:17:14.583Z,9.08
2019-03-23T22:19:46.984Z,9.09
2019-03-23T22:22:19.120Z,9.11
2019-03-23T22:24:51.263Z,9.01
2019-03-23T22:27:23.407Z,9.06
2019-03-23T22:29:55.698Z,9.07
2019-03-23T22:32:27.907Z,8.96
2019-03-23T22:35:00.356Z,8.99
2019-03-23T22:37:32.660Z,8.92
2019-03-23T22:40:05.147Z,9.04
2019-03-23T22:42:37.381Z,8.98
2019-03-23T22:45:09.652Z,8.94
2019-03-23T22:47:41.869Z,8.83
2019-03-23T22:50:14.208Z,8.84
2019-03-23T22:52:46.413Z,8.77
2019-03-23T22:55:18.556Z,8.64
2019-03-23T22:57:50.693Z,8.60
2019-03-23T23:00:33.466Z,8.54
2019-03-23T23:03:07.218Z,8.60
2019-03-23T23:05:39.439Z,8.65
2019-03-23T23:08:11.668Z,8.77
2019-03-23T23:10:44.772Z,8.80
2019-03-23T23:13:17.176Z,8.82
2019-03-23T23:15:49.360Z,8.92
2019-03-23T23:18:21.563Z,8.91
2019-03-23T23:20:53.707Z,8.96
2019-03-23T23:23:25.930Z,8.99
2019-03-23T23:25:59.289Z,8.94
2019-03-23T23:28:31.497Z,8.88
2019-03-23T23:31:03.728Z,8.88
2019-03-23T23:33:35.944Z,8.84
2019-03-23T23:36:08.159Z,8.71
2019-03-23T23:38:40.471Z,8.70
2019-03-23T23:41:12.692Z,8.61
2019-03-23T23:43:44.889Z,8.52
2019-03-23T23:46:17.120Z,8.47
2019-03-23T23:48:51.460Z,8.53
2019-03-23T23:51:23.194Z,8.52
2019-03-23T23:53:55.441Z,8.55
2019-03-23T23:56:27.609Z,8.56
2019-03-23T23:58:59.960Z,8.51
